Bookmark and Share
Track history (hours):
 

Morgenster

Last reported at 2014-Apr-17 00:28 UTC. Time now 2014-Apr-17 00:59 UTC.
Position N 52°03' E 001°10'.

Length 46 m; draft 2.4 m.

Type: Sailing vessel. MMSI: 245136000.

NotesDate/timePositionNaut miles runAvg speedWind from/ knotsBaromVisibWave heightAir tempDewpointWater temp
2014-Apr-17 00:28N 52°03' E 001°10'0 0.0
2014-Apr-16 23:31N 52°03' E 001°10'0 0.0
2014-Apr-16 22:19N 52°03' E 001°10'0 0.0
2014-Apr-16 21:31N 52°03' E 001°10'0 0.0
2014-Apr-16 20:13N 52°03' E 001°10'0 0.0
2014-Apr-16 19:25N 52°03' E 001°10'0 0.0
2014-Apr-16 13:13N 52°03' E 001°10'0 0.0
2014-Apr-16 11:31N 52°03' E 001°10'0 0.0
2014-Apr-16 10:28N 52°03' E 001°10'0 0.1
2014-Apr-16 09:29N 52°03' E 001°10'2 2.5
2014-Apr-16 08:33N 52°01' E 001°11'4 3.8
2014-Apr-16 07:34N 51°59' E 001°17'2 2.4
2014-Apr-16 06:32N 51°57' E 001°14'0 0.0
2014-Apr-16 05:32N 51°57' E 001°14'0 0.0
2014-Apr-16 04:29N 51°57' E 001°14'0 0.0
2014-Apr-16 03:32N 51°57' E 001°14'0 0.0
2014-Apr-16 02:29N 51°57' E 001°14'0 0.0
2014-Apr-16 01:32N 51°57' E 001°14'0 0.1
2014-Apr-16 00:32N 51°57' E 001°14'0 0.0
2014-Apr-15 23:32N 51°57' E 001°14'0 0.0
2014-Apr-15 22:32N 51°57' E 001°14'0 0.0
2014-Apr-15 21:32N 51°57' E 001°14'0 0.0
2014-Apr-15 20:32N 51°57' E 001°14'0 0.0
2014-Apr-15 19:32N 51°57' E 001°14'0 0.0
2014-Apr-15 18:29N 51°57' E 001°14'1 0.5
2014-Apr-15 17:33N 51°57' E 001°15'5 4.8
2014-Apr-15 16:33N 51°56' E 001°23'5 4.8
2014-Apr-15 15:33N 51°58' E 001°30'4 3.8
2014-Apr-15 14:33N 52°00' E 001°35'3 1.6
2014-Apr-15 12:34N 52°02' E 001°39'4 4.2
2014-Apr-15 11:34N 52°03' E 001°45'6 6.0
2014-Apr-15 10:32N 52°03' E 001°55'65 6.5
2014-Apr-15 00:34N 52°15' E 003°39'5 4.9
2014-Apr-14 23:34N 52°14' E 003°47'5 5.1
2014-Apr-14 22:34N 52°16' E 003°55'6 6.0
2014-Apr-14 21:32N 52°18' E 004°05'7 7.1
2014-Apr-14 20:33N 52°21' E 004°15'7 7.3
2014-Apr-14 19:33N 52°25' E 004°25'6 6.2
2014-Apr-14 18:34N 52°28' E 004°34'4 3.8
2014-Apr-14 17:33N 52°28' E 004°40'6 6.0
2014-Apr-14 16:34N 52°25' E 004°49'5 4.9
2014-Apr-14 15:34N 52°23' E 004°56'4 4.1
2014-Apr-14 14:34N 52°23' E 005°03'8 7.6
2014-Apr-14 13:34N 52°29' E 005°10'13 6.6
2014-Apr-14 11:34N 52°41' E 005°18'5 5.4
2014-Apr-14 10:34N 52°47' E 005°17'8 7.8
2014-Apr-14 09:34N 52°53' E 005°08'4 4.5
2014-Apr-14 08:34N 52°56' E 005°03'5 5.4
2014-Apr-14 07:33N 52°59' E 004°56'4 0.5
2014-Apr-13 22:18N 52°59' E 004°49'0 0.0
2014-Apr-13 21:18N 52°59' E 004°49'0 0.0
2014-Apr-13 19:18N 52°59' E 004°49'0 0.1
2014-Apr-13 18:33N 52°59' E 004°49'0 0.0
2014-Apr-13 17:33N 52°59' E 004°49'2 0.9
2014-Apr-13 15:28N 52°57' E 004°47'0 0.0
2014-Apr-13 08:07N 52°57' E 004°46'0 0.0
2014-Apr-13 07:25N 52°57' E 004°46'0 0.0
2014-Apr-13 06:32N 52°57' E 004°46'0 0.0
2014-Apr-13 05:30N 52°57' E 004°46'0 0.0
2014-Apr-13 04:26N 52°57' E 004°46'0 0.0
2014-Apr-13 03:26N 52°57' E 004°46'0 0.0
2014-Apr-12 18:16N 52°57' E 004°46'0 0.0
2014-Apr-12 09:27N 52°57' E 004°46'1 0.0
2014-Apr-11 09:19N 52°57' E 004°47'2 2.1
2014-Apr-11 08:12N 52°59' E 004°45'5 2.8
2014-Apr-11 06:33N 52°55' E 004°40'5 4.8
2014-Apr-11 05:33N 52°52' E 004°34'6 6.2
2014-Apr-11 04:33N 52°50' E 004°24'9 7.7
2014-Apr-11 03:25N 52°47' E 004°10'91 6.5
2014-Apr-10 13:25N 51°49' E 002°17'8 4.2
2014-Apr-10 11:34N 51°43' E 002°09'14 7.1
2014-Apr-10 09:32N 51°32' E 001°54'7 7.4
2014-Apr-10 08:34N 51°27' E 001°46'5 4.9
2014-Apr-10 07:34N 51°23' E 001°41'5 4.9
2014-Apr-10 06:33N 51°21' E 001°34'4 4.5
2014-Apr-10 05:33N 51°20' E 001°27'1 1.2
2014-Apr-10 04:31N 51°20' E 001°25'0 0.0
2014-Apr-10 03:31N 51°20' E 001°25'0 0.0
2014-Apr-10 02:31N 51°20' E 001°25'0 0.0
2014-Apr-10 01:31N 51°20' E 001°25'0 0.0
2014-Apr-10 00:31N 51°20' E 001°25'0 0.0
2014-Apr-09 23:31N 51°20' E 001°25'0 0.0
2014-Apr-09 22:31N 51°20' E 001°25'0 0.0
2014-Apr-09 21:31N 51°20' E 001°25'0 0.0
2014-Apr-09 20:31N 51°20' E 001°25'0 0.0
2014-Apr-09 19:28N 51°20' E 001°25'0 0.0
2014-Apr-09 18:31N 51°20' E 001°25'0 0.0
2014-Apr-09 17:31N 51°20' E 001°25'0 0.0
2014-Apr-09 16:32N 51°20' E 001°25'0 0.0
2014-Apr-09 15:32N 51°20' E 001°25'0 0.0
2014-Apr-09 14:29N 51°20' E 001°25'0 0.0
2014-Apr-09 13:32N 51°20' E 001°25'0 0.0
2014-Apr-09 12:32N 51°20' E 001°25'0 0.0
2014-Apr-09 11:32N 51°20' E 001°25'0 0.0
2014-Apr-09 10:32N 51°20' E 001°25'0 0.0
2014-Apr-09 09:32N 51°20' E 001°25'0 0.0
2014-Apr-09 08:32N 51°20' E 001°25'0 0.0
2014-Apr-09 07:33N 51°20' E 001°25'3 2.7
2014-Apr-09 06:33N 51°22' E 001°28'0 0.5
2014-Apr-09 05:33N 51°22' E 001°28'0 0.0
2014-Apr-09 04:33N 51°22' E 001°28'0 0.0
2014-Apr-09 03:33N 51°22' E 001°28'0 0.0
2014-Apr-09 02:33N 51°22' E 001°28'0 0.0
2014-Apr-09 01:30N 51°22' E 001°28'0 0.0
2014-Apr-09 00:33N 51°22' E 001°28'0 0.0
2014-Apr-08 23:30N 51°22' E 001°28'0 0.0
2014-Apr-08 22:33N 51°22' E 001°28'0 0.0
2014-Apr-08 21:33N 51°22' E 001°28'4 4.4
2014-Apr-08 20:33N 51°26' E 001°32'14 6.7
2014-Apr-08 18:32N 51°36' E 001°47'7 7.0
2014-Apr-08 17:32N 51°41' E 001°55'131 4.0
2014-Apr-07 08:30N 53°03' E 004°42'5 5.1
2014-Apr-07 07:33N 52°58' E 004°45'2 2.2
2014-Apr-07 06:31N 52°59' E 004°49'0 0.0
2014-Apr-07 05:31N 52°59' E 004°49'0 0.0
2014-Apr-07 01:19N 52°59' E 004°49'0 0.0
2014-Apr-07 00:31N 52°59' E 004°49'  

Dump ship's entire track history

sailing weather and tide predictions

Morgenster — PHMY — position and weather